Time;durP1;ratioP1;P1;durP2;ratioP2;P2;SDS_P1;SDS_P2;PMS_P1;PMS_P2;Temp;Humidity;BMP_temperature;BMP_pressure;BME280_temperature;BME280_humidity;BME280_pressure;Samples;Min_cycle;Max_cycle;Signal;HPM_P1;HPM_P2
2023/03/26 00:01:45;;;;;;;20.92;4.82;;;;;;;11.11;65.76;100691.25;5112319;28;20127;-62
2023/03/26 00:04:13;;;;;;;17.63;4.63;;;;;;;11.09;65.69;100687.97;5118039;28;20040;-62
2023/03/26 00:06:41;;;;;;;22.02;4.47;;;;;;;11.11;65.78;100698.50;5116967;28;20104;-63
2023/03/26 00:09:12;;;;;;;24.90;6.47;;;;;;;11.00;65.99;100679.41;5109701;28;20062;-63
2023/03/26 00:11:40;;;;;;;16.17;4.22;;;;;;;11.07;65.71;100682.84;5116554;28;20052;-62
2023/03/26 00:14:12;;;;;;;16.30;4.30;;;;;;;11.04;65.32;100680.59;5118881;28;20451;-64
2023/03/26 00:16:42;;;;;;;25.98;4.82;;;;;;;11.05;65.74;100674.16;5117380;28;20050;-62
2023/03/26 00:19:10;;;;;;;23.58;5.43;;;;;;;11.05;65.64;100681.41;5120604;28;20096;-62
2023/03/26 00:21:38;;;;;;;20.67;4.57;;;;;;;11.04;65.85;100685.16;5122073;28;20047;-64
2023/03/26 00:24:08;;;;;;;18.67;5.28;;;;;;;11.05;65.82;100684.94;5121980;28;20044;-62
2023/03/26 00:26:37;;;;;;;20.75;4.75;;;;;;;11.05;65.66;100681.41;5123148;28;20600;-63
2023/03/26 00:29:07;;;;;;;22.02;5.25;;;;;;;11.03;65.56;100681.66;5117595;28;20051;-63
2023/03/26 00:31:36;;;;;;;20.98;5.25;;;;;;;11.04;65.72;100677.09;5119130;28;20039;-63
2023/03/26 00:34:05;;;;;;;20.13;4.03;;;;;;;11.03;65.76;100672.75;5121801;28;20043;-63
2023/03/26 00:36:35;;;;;;;14.80;4.18;;;;;;;11.02;65.71;100674.63;5122885;28;20043;-63
2023/03/26 00:39:05;;;;;;;19.23;4.35;;;;;;;11.02;65.59;100671.94;5119236;28;20055;-63
2023/03/26 00:41:35;;;;;;;17.50;4.30;;;;;;;11.00;65.72;100665.97;5117826;28;20525;-63
2023/03/26 00:44:03;;;;;;;17.75;4.68;;;;;;;11.00;65.65;100665.97;5122348;28;20071;-62
2023/03/26 00:46:31;;;;;;;20.65;4.97;;;;;;;10.98;65.79;100656.50;5122107;28;20043;-62
2023/03/26 00:49:02;;;;;;;18.58;4.47;;;;;;;10.98;65.54;100662.69;5117348;28;20142;-63
2023/03/26 00:51:33;;;;;;;14.05;4.32;;;;;;;10.96;65.65;100648.66;5120876;28;20461;-62
2023/03/26 00:54:01;;;;;;;19.88;4.63;;;;;;;10.97;65.71;100650.28;5108407;28;20040;-62
2023/03/26 00:56:29;;;;;;;20.92;5.43;;;;;;;10.97;65.70;100644.91;5115862;28;20058;-63
2023/03/26 00:58:59;;;;;;;17.95;4.43;;;;;;;10.98;65.61;100651.13;5115746;28;20539;-62
2023/03/26 01:01:29;;;;;;;18.23;3.88;;;;;;;10.98;65.52;100646.56;5120150;27;20051;-62
2023/03/26 01:03:58;;;;;;;16.45;3.75;;;;;;;10.97;65.47;100644.91;5113299;28;20352;-62
2023/03/26 01:06:34;;;;;;;16.55;4.40;;;;;;;10.97;65.55;100636.03;5117580;28;20115;-62
2023/03/26 01:09:07;;;;;;;25.17;5.07;;;;;;;10.96;65.51;100634.38;5118366;28;20052;-63
2023/03/26 01:11:35;;;;;;;25.33;4.10;;;;;;;10.96;65.60;100626.31;5120943;28;20475;-63
2023/03/26 01:14:07;;;;;;;17.42;4.28;;;;;;;10.95;65.50;100620.13;5117393;28;20051;-63
2023/03/26 01:16:38;;;;;;;21.52;5.43;;;;;;;10.94;65.72;100620.34;5120573;28;20053;-63
2023/03/26 01:19:11;;;;;;;17.10;3.83;;;;;;;10.93;65.64;100608.78;5117482;28;20067;-63
2023/03/26 01:21:41;;;;;;;17.83;3.85;;;;;;;10.93;65.45;100600.72;5120905;28;20092;-63
2023/03/26 01:24:10;;;;;;;21.48;5.07;;;;;;;10.92;65.70;100596.38;5118501;28;20055;-62
2023/03/26 01:27:09;;;;;;;20.67;5.05;;;;;;;10.92;65.58;100592.88;5117092;28;20048;-63
2023/03/26 01:29:44;;;;;;;18.40;4.55;;;;;;;10.91;65.69;100589.38;5113821;28;20067;-63
2023/03/26 01:32:38;;;;;;;19.00;3.88;;;;;;;10.90;65.68;100587.72;5114661;28;20052;-62
2023/03/26 01:35:17;;;;;;;14.85;3.78;;;;;;;10.89;65.61;100588.78;5103310;28;20069;-63
2023/03/26 01:37:57;;;;;;;21.27;4.13;;;;;;;10.87;65.64;100588.19;5117912;28;20111;-63
2023/03/26 01:40:37;;;;;;;16.95;4.50;;;;;;;10.86;65.39;100585.72;5120140;28;20036;-62
2023/03/26 01:43:11;;;;;;;20.15;4.72;;;;;;;10.85;65.65;100592.16;5110476;28;21508;-63
2023/03/26 01:45:42;;;;;;;17.73;4.15;;;;;;;10.83;65.62;100581.63;5116635;28;20062;-62
2023/03/26 01:48:10;;;;;;;16.83;4.30;;;;;;;10.75;65.57;100566.66;5110977;28;20066;-62
2023/03/26 01:50:38;;;;;;;19.92;4.13;;;;;;;10.83;65.61;100573.56;5120138;28;20096;-62
2023/03/26 01:53:08;;;;;;;13.80;4.40;;;;;;;10.82;65.58;100576.50;5116203;28;20059;-62
2023/03/26 01:55:49;;;;;;;22.65;3.88;;;;;;;10.80;65.78;100574.03;5119803;28;20540;-62
2023/03/26 01:58:28;;;;;;;17.13;3.83;;;;;;;10.79;65.63;100571.56;5114508;28;20594;-62
2023/03/26 02:01:06;;;;;;;21.17;4.55;;;;;;;10.77;65.51;100558.34;5112735;28;20043;-62
2023/03/26 02:03:41;;;;;;;18.10;4.05;;;;;;;10.77;65.57;100552.97;5112889;28;20055;-62
2023/03/26 02:06:16;;;;;;;14.75;3.75;;;;;;;10.76;65.61;100554.84;5111533;28;20503;-62
2023/03/26 02:08:51;;;;;;;20.42;4.03;;;;;;;10.76;65.75;100543.28;5116334;28;20061;-62
2023/03/26 02:11:20;;;;;;;14.38;3.38;;;;;;;10.75;65.60;100544.34;5114337;28;20139;-62
2023/03/26 02:13:51;;;;;;;13.93;3.67;;;;;;;10.74;65.49;100537.31;5111543;28;20142;-62
2023/03/26 02:16:20;;;;;;;16.98;3.83;;;;;;;10.73;65.53;100530.31;5117577;28;20045;-62
2023/03/26 02:18:54;;;;;;;15.25;4.85;;;;;;;10.75;65.58;100525.53;5117729;28;20097;-62
2023/03/26 02:21:24;;;;;;;16.08;3.30;;;;;;;10.75;65.45;100522.84;5108860;28;20068;-62
2023/03/26 02:23:56;;;;;;;21.73;4.43;;;;;;;10.73;65.64;100515.00;5116722;28;20055;-62
2023/03/26 02:26:26;;;;;;;15.65;3.78;;;;;;;10.73;65.49;100516.88;5120369;28;20052;-63
2023/03/26 02:28:54;;;;;;;16.92;4.38;;;;;;;10.73;65.49;100516.88;5118463;28;20070;-62
2023/03/26 02:31:24;;;;;;;14.02;4.50;;;;;;;10.71;65.48;100518.97;5116288;28;20075;-63
2023/03/26 02:33:54;;;;;;;16.52;4.95;;;;;;;10.72;65.41;100509.84;5113703;28;20051;-63
2023/03/26 02:36:25;;;;;;;17.00;3.95;;;;;;;10.72;65.36;100507.97;5110344;28;20096;-62
2023/03/26 02:38:56;;;;;;;15.15;5.28;;;;;;;10.72;65.23;100509.84;5107794;28;20047;-62
2023/03/26 02:41:26;;;;;;;17.08;4.03;;;;;;;10.71;65.33;100508.22;5113579;28;20396;-62
2023/03/26 02:43:53;;;;;;;22.42;5.15;;;;;;;10.71;65.28;100503.66;5119163;28;20048;-62
2023/03/26 02:46:21;;;;;;;19.00;4.40;;;;;;;10.71;65.45;100500.16;5119152;28;20050;-62
2023/03/26 02:48:49;;;;;;;15.63;4.03;;;;;;;10.71;65.33;100490.22;5119473;28;20131;-62
2023/03/26 02:51:18;;;;;;;15.60;3.70;;;;;;;10.70;65.39;100487.75;5116976;28;20040;-62
2023/03/26 02:53:46;;;;;;;17.70;4.20;;;;;;;10.69;65.36;100483.44;5115324;28;20401;-62
2023/03/26 02:56:14;;;;;;;14.25;3.38;;;;;;;10.72;65.27;100478.41;5121922;28;20051;-62
2023/03/26 02:58:43;;;;;;;13.20;3.53;;;;;;;10.71;65.31;100471.41;5117122;28;20078;-62
2023/03/26 03:01:11;;;;;;;20.38;4.93;;;;;;;10.71;65.30;100466.03;5114023;28;20043;-62
2023/03/26 03:03:39;;;;;;;23.65;5.03;;;;;;;10.73;65.30;100457.72;5120842;28;20266;-62
2023/03/26 03:06:07;;;;;;;15.45;4.75;;;;;;;10.72;65.10;100456.09;5118648;28;20043;-62
2023/03/26 03:08:35;;;;;;;18.00;5.03;;;;;;;10.71;65.33;100457.97;5118865;28;20153;-62
2023/03/26 03:11:08;;;;;;;24.20;3.92;;;;;;;10.71;65.32;100457.16;5121402;28;20084;-61
2023/03/26 03:13:36;;;;;;;13.02;3.45;;;;;;;10.62;65.27;100434.34;5110761;28;20040;-62
2023/03/26 03:16:06;;;;;;;14.75;4.43;;;;;;;10.69;65.24;100443.13;5121231;28;20664;-62
2023/03/26 03:18:34;;;;;;;12.63;3.20;;;;;;;10.68;65.25;100436.94;5118938;28;20123;-62
2023/03/26 03:21:02;;;;;;;17.42;3.67;;;;;;;10.68;65.32;100436.94;5116813;28;20198;-63
2023/03/26 03:23:30;;;;;;;19.30;3.28;;;;;;;10.68;65.41;100436.13;5119389;28;20047;-62
2023/03/26 03:25:58;;;;;;;14.98;3.30;;;;;;;10.67;65.71;100427.22;5114840;28;20209;-62
2023/03/26 03:28:26;;;;;;;14.32;3.13;;;;;;;10.68;65.37;100419.97;5122799;28;20310;-62
2023/03/26 03:30:56;;;;;;;17.90;3.53;;;;;;;10.67;65.27;100419.16;5121858;28;20054;-62
2023/03/26 03:33:25;;;;;;;12.07;3.65;;;;;;;10.66;65.51;100414.03;5120378;28;20044;-62
2023/03/26 03:35:53;;;;;;;19.38;4.43;;;;;;;10.66;65.50;100414.03;5121151;28;20059;-62
2023/03/26 03:38:21;;;;;;;18.70;3.80;;;;;;;10.63;65.67;100415.31;5119666;28;20055;-63
2023/03/26 03:40:49;;;;;;;14.50;3.42;;;;;;;10.62;65.62;100413.66;5116679;28;20139;-63
2023/03/26 03:43:17;;;;;;;14.45;3.13;;;;;;;10.61;65.72;100414.72;5117385;28;20102;-63
2023/03/26 03:45:46;;;;;;;13.90;3.60;;;;;;;10.62;65.71;100412.84;5121413;28;20074;-63
2023/03/26 03:48:14;;;;;;;14.95;3.50;;;;;;;10.61;65.71;100403.16;5109149;28;20044;-63
2023/03/26 03:50:43;;;;;;;13.70;3.92;;;;;;;10.61;65.58;100401.28;5112100;28;20040;-63
2023/03/26 03:53:14;;;;;;;13.23;3.15;;;;;;;10.56;65.90;100393.09;5121166;28;20083;-63
2023/03/26 03:55:51;;;;;;;11.85;3.90;;;;;;;10.58;65.94;100391.00;5120023;28;20048;-63
2023/03/26 03:58:20;;;;;;;11.55;3.70;;;;;;;10.57;66.09;100388.56;5110153;28;20047;-63
2023/03/26 04:00:49;;;;;;;11.70;2.80;;;;;;;10.58;65.76;100384.81;5119888;28;20465;-63
2023/03/26 04:03:17;;;;;;;9.38;2.67;;;;;;;10.58;66.09;100382.94;5113147;28;20075;-63
2023/03/26 04:05:48;;;;;;;9.30;2.83;;;;;;;10.56;66.09;100374.28;5116903;28;20069;-63
2023/03/26 04:08:16;;;;;;;8.95;2.50;;;;;;;10.51;66.01;100352.69;5121449;28;20054;-63
2023/03/26 04:10:45;;;;;;;8.95;3.08;;;;;;;10.58;66.03;100368.69;5115546;28;20111;-63
2023/03/26 04:13:14;;;;;;;9.90;3.13;;;;;;;10.57;66.37;100353.63;5117346;28;20055;-64
2023/03/26 04:15:43;;;;;;;13.55;2.65;;;;;;;10.56;66.20;100358.19;5121577;28;20421;-63
2023/03/26 04:18:11;;;;;;;9.32;2.72;;;;;;;10.56;66.21;100351.97;5117542;28;20044;-63
2023/03/26 04:20:45;;;;;;;10.65;2.88;;;;;;;10.55;66.24;100351.16;5112220;28;20131;-63
2023/03/26 04:23:14;;;;;;;13.60;3.53;;;;;;;10.51;66.36;100333.88;5116135;28;20048;-63
2023/03/26 04:25:47;;;;;;;9.65;2.60;;;;;;;10.54;66.24;100336.09;5111360;28;20070;-63
2023/03/26 04:28:22;;;;;;;10.63;2.65;;;;;;;10.54;66.45;100330.72;5119619;28;20094;-63
2023/03/26 04:30:52;;;;;;;9.27;2.35;;;;;;;10.55;66.34;100326.16;5115616;28;20090;-63
2023/03/26 04:33:20;;;;;;;10.30;2.28;;;;;;;10.54;66.40;100313.78;5115438;28;20115;-63
2023/03/26 04:35:48;;;;;;;9.70;2.70;;;;;;;10.53;66.40;100312.97;5113329;28;20073;-63
2023/03/26 04:38:17;;;;;;;11.15;3.50;;;;;;;10.52;66.50;100308.66;5120635;28;20071;-63
2023/03/26 04:40:47;;;;;;;9.90;2.70;;;;;;;10.52;66.44;100305.13;5116626;28;20143;-63
2023/03/26 04:43:17;;;;;;;12.80;3.80;;;;;;;10.52;66.64;100294.38;5120360;28;20048;-63
2023/03/26 04:45:46;;;;;;;16.42;3.05;;;;;;;10.52;66.51;100299.75;5119039;28;20107;-63
2023/03/26 04:48:14;;;;;;;14.02;3.72;;;;;;;10.52;66.56;100287.16;5119735;28;20058;-63
2023/03/26 04:50:43;;;;;;;9.52;3.00;;;;;;;10.53;66.43;100279.91;5118238;28;20074;-63
2023/03/26 04:53:14;;;;;;;9.48;2.88;;;;;;;10.52;66.82;100279.09;5113743;28;20127;-63
2023/03/26 04:55:47;;;;;;;6.20;2.05;;;;;;;10.53;66.61;100271.84;5116691;28;20074;-63
2023/03/26 04:58:16;;;;;;;13.20;3.28;;;;;;;10.52;66.59;100267.53;5113795;28;20073;-63
2023/03/26 05:00:46;;;;;;;11.23;3.00;;;;;;;10.51;66.66;100263.19;5121304;28;20058;-63
2023/03/26 05:03:14;;;;;;;9.80;3.03;;;;;;;10.51;66.66;100265.88;5114116;27;20115;-63
2023/03/26 05:05:42;;;;;;;11.38;3.45;;;;;;;10.50;66.84;100262.38;5117415;28;20116;-63
2023/03/26 05:08:10;;;;;;;10.35;3.08;;;;;;;10.51;66.80;100255.16;5111463;28;20071;-63
2023/03/26 05:10:38;;;;;;;10.75;2.63;;;;;;;10.50;66.88;100254.31;5121308;28;20075;-63
2023/03/26 05:13:07;;;;;;;12.32;3.55;;;;;;;10.49;66.82;100252.69;5115324;28;20067;-63
2023/03/26 05:15:35;;;;;;;12.93;2.80;;;;;;;10.49;66.85;100252.69;5117077;28;20134;-62
2023/03/26 05:18:02;;;;;;;11.27;2.45;;;;;;;10.49;66.88;100258.06;5113923;28;20074;-64
2023/03/26 05:20:31;;;;;;;9.82;2.58;;;;;;;10.49;66.88;100254.56;5115553;28;20058;-63
2023/03/26 05:22:59;;;;;;;10.43;2.58;;;;;;;10.50;66.85;100253.50;5114015;28;20050;-63
2023/03/26 05:25:27;;;;;;;8.60;2.70;;;;;;;10.49;66.85;100244.63;5118134;28;20048;-64
2023/03/26 05:27:54;;;;;;;8.30;2.22;;;;;;;10.47;66.77;100237.88;5107514;28;20382;-63
2023/03/26 05:30:24;;;;;;;12.35;2.67;;;;;;;10.47;66.89;100238.69;5106187;28;20046;-63
2023/03/26 05:32:52;;;;;;;11.50;2.88;;;;;;;10.46;66.95;100233.53;5103880;28;20079;-63
2023/03/26 05:35:20;;;;;;;11.75;2.88;;;;;;;10.46;66.88;100222.78;5106185;28;20170;-63
2023/03/26 05:37:50;;;;;;;7.75;2.10;;;;;;;10.46;67.09;100222.78;5112276;28;20047;-64
2023/03/26 05:40:18;;;;;;;12.43;3.08;;;;;;;10.44;66.93;100210.41;5108945;28;20103;-63
2023/03/26 05:42:47;;;;;;;10.43;2.75;;;;;;;10.44;66.93;100217.66;5105807;28;20073;-63
2023/03/26 05:45:15;;;;;;;11.90;2.33;;;;;;;10.35;67.07;100193.06;5112021;28;20118;-64
2023/03/26 05:47:44;;;;;;;9.30;2.80;;;;;;;10.43;67.03;100206.09;5110158;28;20047;-64
2023/03/26 05:50:12;;;;;;;13.23;3.25;;;;;;;10.42;67.18;100196.41;5113502;28;20089;-64
2023/03/26 05:52:40;;;;;;;7.55;2.15;;;;;;;10.42;67.07;100191.03;5114714;28;20156;-64
2023/03/26 05:55:08;;;;;;;8.43;2.47;;;;;;;10.40;67.08;100189.66;5116722;28;20052;-64
2023/03/26 05:57:36;;;;;;;8.52;2.97;;;;;;;10.42;66.90;100193.72;5115094;28;20048;-64
2023/03/26 06:00:07;;;;;;;13.02;3.03;;;;;;;10.34;67.16;100174.50;5116820;28;20048;-62
2023/03/26 06:02:35;;;;;;;10.40;3.17;;;;;;;10.41;67.27;100181.34;5118629;28;20153;-63
2023/03/26 06:05:06;;;;;;;7.30;2.35;;;;;;;10.40;67.04;100178.91;5112350;28;20075;-63
2023/03/26 06:07:34;;;;;;;9.02;2.60;;;;;;;10.39;67.23;100179.97;5119662;28;20054;-63
2023/03/26 06:10:02;;;;;;;11.52;3.25;;;;;;;10.39;67.62;100177.28;5112027;28;20073;-63
2023/03/26 06:12:30;;;;;;;9.25;3.60;;;;;;;10.39;67.44;100180.78;5121202;28;20476;-63
2023/03/26 06:14:57;;;;;;;10.80;2.55;;;;;;;10.39;67.38;100169.22;5112414;28;20118;-63
2023/03/26 06:17:25;;;;;;;8.02;2.58;;;;;;;10.39;67.17;100167.34;5117526;28;20047;-63
2023/03/26 06:19:53;;;;;;;11.82;3.10;;;;;;;10.39;67.22;100169.22;5120700;28;20044;-63
2023/03/26 06:22:22;;;;;;;12.25;2.85;;;;;;;10.37;67.29;100166.78;5119947;28;20074;-62
2023/03/26 06:24:51;;;;;;;11.60;2.60;;;;;;;10.37;67.27;100165.97;5119647;28;20050;-63
2023/03/26 06:27:19;;;;;;;11.20;3.65;;;;;;;10.36;67.55;100170.53;5120252;28;20392;-63
2023/03/26 06:29:47;;;;;;;8.48;2.72;;;;;;;10.36;67.58;100170.53;5117779;28;20048;-64
2023/03/26 06:32:15;;;;;;;11.52;2.70;;;;;;;10.36;67.31;100170.53;5113398;28;20363;-64
2023/03/26 06:34:47;;;;;;;10.15;2.15;;;;;;;10.51;66.96;100164.63;5116053;28;20047;-63
2023/03/26 06:37:14;;;;;;;11.90;2.90;;;;;;;10.68;66.33;100170.06;5113380;28;20043;-64
2023/03/26 06:39:44;;;;;;;11.10;2.65;;;;;;;10.86;65.79;100169.06;5119101;28;20126;-64
2023/03/26 06:42:12;;;;;;;11.10;2.53;;;;;;;11.05;65.12;100167.78;5120049;28;20124;-66
2023/03/26 06:44:39;;;;;;;11.82;3.08;;;;;;;11.22;64.58;100167.81;5113529;28;20663;-66
2023/03/26 06:47:07;;;;;;;15.65;3.17;;;;;;;11.39;64.04;100166.78;5115186;28;20054;-66
2023/03/26 06:49:36;;;;;;;10.25;2.85;;;;;;;11.58;63.27;100170.06;5108014;28;20113;-65
2023/03/26 06:52:05;;;;;;;8.02;2.50;;;;;;;11.71;62.89;100167.03;5109334;28;20349;-65
2023/03/26 06:54:33;;;;;;;8.75;2.30;;;;;;;11.86;62.59;100162.97;5119348;28;20110;-66
2023/03/26 06:57:02;;;;;;;12.07;2.92;;;;;;;11.87;62.44;100165.41;5114360;28;20094;-66
2023/03/26 06:59:30;;;;;;;10.07;2.22;;;;;;;11.77;62.71;100159.03;5118705;28;20050;-67
2023/03/26 07:01:58;;;;;;;15.77;3.08;;;;;;;11.62;63.24;100156.91;5116987;28;20046;-66
2023/03/26 07:04:25;;;;;;;10.15;3.47;;;;;;;11.46;63.68;100155.06;5119442;28;20130;-66
2023/03/26 07:06:53;;;;;;;7.05;2.67;;;;;;;11.32;64.50;100154.56;4758817;28;10000142;-65
2023/03/26 07:09:21;;;;;;;8.15;2.42;;;;;;;11.20;64.87;100151.13;5114130;28;20044;-65
2023/03/26 07:11:49;;;;;;;8.65;2.92;;;;;;;11.09;65.36;100153.63;5113461;28;20044;-66
2023/03/26 07:14:18;;;;;;;13.20;3.22;;;;;;;11.02;65.49;100149.47;5108331;28;20052;-65
2023/03/26 07:16:46;;;;;;;9.50;2.78;;;;;;;10.97;65.62;100149.38;5117752;28;20047;-66
2023/03/26 07:19:14;;;;;;;11.07;2.78;;;;;;;10.91;65.89;100151.16;5112813;28;20408;-66
2023/03/26 07:21:42;;;;;;;11.13;2.67;;;;;;;10.87;65.99;100144.63;5116685;28;20051;-65
2023/03/26 07:24:12;;;;;;;14.25;2.60;;;;;;;10.83;66.15;100140.78;5112360;28;20048;-65
2023/03/26 07:26:51;;;;;;;8.95;2.80;;;;;;;10.81;66.42;100140.22;5113017;28;20047;-66
2023/03/26 07:29:33;;;;;;;9.75;2.10;;;;;;;10.77;66.38;100139.06;5100340;28;20083;-66
2023/03/26 07:32:13;;;;;;;14.10;3.47;;;;;;;10.73;66.57;100133.34;5113157;28;20124;-67
2023/03/26 07:34:51;;;;;;;11.75;3.00;;;;;;;10.66;66.82;100129.97;5119947;28;20468;-69
2023/03/26 07:37:32;;;;;;;9.52;2.63;;;;;;;10.68;66.89;100137.81;5117262;28;20363;-65
2023/03/26 07:40:04;;;;;;;8.77;2.60;;;;;;;10.65;67.09;100122.16;5109741;28;20071;-67
2023/03/26 07:42:51;;;;;;;11.30;2.92;;;;;;;10.64;67.05;100131.28;5114662;28;20100;-67
2023/03/26 07:45:26;;;;;;;10.25;2.35;;;;;;;10.58;67.15;100124.19;5112717;28;20055;-66
2023/03/26 07:47:55;;;;;;;8.73;2.78;;;;;;;10.59;67.10;100121.25;5115705;28;20036;-65
2023/03/26 07:50:24;;;;;;;7.75;2.60;;;;;;;10.58;67.25;100116.94;5110479;28;20055;-66
2023/03/26 07:52:53;;;;;;;8.68;3.05;;;;;;;10.54;67.23;100113.09;5113923;28;20063;-66
2023/03/26 07:55:21;;;;;;;6.82;2.35;;;;;;;10.55;67.47;100114.72;5119684;28;20050;-66
2023/03/26 07:58:01;;;;;;;7.78;2.67;;;;;;;10.53;67.51;100111.47;5117180;28;20040;-67
2023/03/26 08:00:37;;;;;;;9.57;3.20;;;;;;;10.53;67.43;100111.47;5116476;28;20048;-65
2023/03/26 08:03:30;;;;;;;8.25;2.78;;;;;;;10.51;67.60;100105.50;5118716;28;20052;-65
2023/03/26 08:06:09;;;;;;;9.65;2.42;;;;;;;10.52;67.73;100106.31;5110249;28;20040;-63
2023/03/26 08:08:48;;;;;;;10.93;3.03;;;;;;;10.50;67.57;100101.19;5122230;28;20044;-64
2023/03/26 08:11:28;;;;;;;9.00;2.72;;;;;;;10.50;67.89;100106.56;5114321;28;20138;-62
2023/03/26 08:14:08;;;;;;;10.60;2.55;;;;;;;10.48;67.70;100102.47;5117239;28;20127;-63
2023/03/26 08:16:43;;;;;;;10.10;3.50;;;;;;;10.50;67.51;100097.69;5123029;28;20086;-63
2023/03/26 08:19:31;;;;;;;7.50;2.97;;;;;;;10.49;67.85;100096.06;5114094;28;20046;-63
2023/03/26 08:22:06;;;;;;;10.25;2.58;;;;;;;10.48;67.85;100105.19;5123528;28;20055;-63
2023/03/26 08:24:40;;;;;;;9.32;2.70;;;;;;;10.48;67.93;100099.81;5110560;28;20078;-63
2023/03/26 08:27:17;;;;;;;6.60;2.40;;;;;;;10.47;68.03;100093.63;5122186;28;20054;-62
2023/03/26 08:29:53;;;;;;;6.47;2.50;;;;;;;10.46;68.12;100100.03;5108450;28;20489;-64
2023/03/26 08:32:23;;;;;;;8.07;2.53;;;;;;;10.46;68.04;100091.16;5119325;28;20115;-64
2023/03/26 08:34:51;;;;;;;8.70;2.55;;;;;;;10.46;68.14;100099.22;5110579;28;20039;-62
2023/03/26 08:37:19;;;;;;;9.15;2.65;;;;;;;10.46;68.08;100101.91;5123051;28;20045;-62
2023/03/26 08:39:47;;;;;;;8.10;2.55;;;;;;;10.46;68.00;100094.66;5117382;28;20063;-63
2023/03/26 08:42:49;;;;;;;10.82;2.97;;;;;;;10.46;68.05;100097.34;5114662;28;20036;-64
2023/03/26 08:45:41;;;;;;;10.13;2.67;;;;;;;10.48;68.04;100091.75;5093477;28;20056;-63
2023/03/26 08:48:55;;;;;;;6.65;2.15;;;;;;;10.48;67.89;100091.75;5108260;28;20048;-63
2023/03/26 08:51:56;;;;;;;9.68;2.20;;;;;;;10.47;68.15;100092.78;5106660;28;20078;-63
2023/03/26 08:54:47;;;;;;;12.45;2.85;;;;;;;10.47;68.07;100090.94;5114931;28;20538;-63
2023/03/26 08:57:38;;;;;;;8.75;2.08;;;;;;;10.47;68.05;100092.78;5118183;28;20135;-63
2023/03/26 09:00:39;;;;;;;7.93;2.53;;;;;;;10.48;68.14;100086.38;5118238;28;20149;-63
2023/03/26 09:03:34;;;;;;;11.98;2.33;;;;;;;10.48;68.24;100092.56;5110223;28;20082;-63
2023/03/26 09:06:25;;;;;;;7.78;2.05;;;;;;;10.47;67.99;100085.56;5114193;28;20051;-63
2023/03/26 09:09:26;;;;;;;7.07;2.35;;;;;;;10.48;67.96;100083.69;5109391;28;20104;-63
2023/03/26 09:12:33;;;;;;;5.93;2.22;;;;;;;10.49;68.10;100085.31;5117870;28;20039;-63
2023/03/26 09:15:43;;;;;;;9.60;2.50;;;;;;;10.49;68.06;100088.00;5084685;28;20051;-63
2023/03/26 09:18:37;;;;;;;7.70;2.83;;;;;;;10.49;68.17;100090.69;5034889;28;20044;-63
2023/03/26 09:21:47;;;;;;;6.05;2.13;;;;;;;10.48;68.27;100087.19;4978027;28;20110;-63
2023/03/26 09:25:05;;;;;;;8.13;2.30;;;;;;;10.49;68.09;100090.69;5021371;28;20617;-63
2023/03/26 09:27:39;;;;;;;11.00;2.50;;;;;;;10.40;68.22;100071.47;4937969;29;20071;-63
2023/03/26 09:30:39;;;;;;;10.27;2.42;;;;;;;10.48;68.34;100081.00;4938960;29;20048;-63
2023/03/26 09:33:37;;;;;;;4.60;2.03;;;;;;;10.48;68.14;100087.19;4930540;29;20075;-63
2023/03/26 09:36:21;;;;;;;6.88;2.45;;;;;;;10.47;68.08;100084.75;4938451;29;20051;-63
2023/03/26 09:38:54;;;;;;;6.30;2.38;;;;;;;10.49;68.13;100090.69;4937391;29;20087;-63
2023/03/26 09:41:38;;;;;;;4.68;1.80;;;;;;;10.49;68.17;100082.63;4940398;29;20048;-63
2023/03/26 09:44:42;;;;;;;7.28;2.15;;;;;;;10.49;67.65;100088.00;4936255;29;20469;-63
2023/03/26 09:47:30;;;;;;;7.05;2.60;;;;;;;10.51;67.90;100088.56;4925647;29;20043;-63
2023/03/26 09:50:15;;;;;;;8.10;2.22;;;;;;;10.53;68.03;100083.78;5025268;28;20046;-63
2023/03/26 09:53:03;;;;;;;5.63;1.88;;;;;;;10.51;68.02;100083.19;5030027;28;20077;-63
2023/03/26 09:55:55;;;;;;;4.70;1.73;;;;;;;10.52;67.83;100084.84;5035631;28;20057;-63
2023/03/26 09:59:04;;;;;;;4.18;1.67;;;;;;;10.52;67.66;100090.22;5035186;28;20077;-63
2023/03/26 10:01:36;;;;;;;;;;;;;;;10.51;67.97;100092.06;5063597;28;20146;-66
2023/03/26 10:04:36;;;;;;;5.35;1.70;;;;;;;10.42;68.05;100078.22;5118060;28;20019;-65
2023/03/26 10:07:14;;;;;;;6.90;1.85;;;;;;;10.50;68.21;100087.75;5115944;28;20563;-64
2023/03/26 10:09:53;;;;;;;4.30;1.55;;;;;;;10.50;68.02;100097.69;4760006;28;10000403;-66
2023/03/26 10:12:37;;;;;;;5.60;2.10;;;;;;;10.50;68.24;100095.81;5110318;28;20056;-63
2023/03/26 10:15:24;;;;;;;6.72;1.92;;;;;;;10.50;68.22;100100.38;5114188;28;20078;-64
2023/03/26 10:18:06;;;;;;;;;;;;;;;10.50;68.23;100098.50;5113483;28;20039;-63
2023/03/26 10:21:01;;;;;;;3.63;1.50;;;;;;;10.50;68.10;100100.38;5112074;28;20295;-64
2023/03/26 10:23:55;;;;;;;5.20;1.48;;;;;;;10.51;68.15;100099.31;5109476;28;20040;-64
2023/03/26 10:26:37;;;;;;;3.78;1.60;;;;;;;10.50;68.08;100095.81;5111218;28;20047;-63
2023/03/26 10:29:44;;;;;;;4.20;1.38;;;;;;;10.49;68.08;100102.25;5114976;28;20048;-63
2023/03/26 10:32:22;;;;;;;3.90;1.33;;;;;;;10.50;68.02;100111.13;5101104;28;20139;-64
2023/03/26 10:35:01;;;;;;;3.35;1.25;;;;;;;10.49;67.94;100110.31;5111572;28;20055;-64
2023/03/26 10:37:41;;;;;;;2.38;1.08;;;;;;;10.50;68.01;100103.06;5114818;28;20047;-63
2023/03/26 10:40:20;;;;;;;2.70;1.02;;;;;;;10.50;67.89;100105.75;5110256;28;20155;-65
2023/03/26 10:43:10;;;;;;;5.07;1.30;;;;;;;10.51;67.97;100108.19;5109565;28;20058;-62
2023/03/26 10:45:52;;;;;;;2.72;1.00;;;;;;;10.51;68.00;100107.38;5108120;28;20103;-64
2023/03/26 10:48:40;;;;;;;1.85;0.90;;;;;;;10.52;67.99;100109.00;5116001;28;20081;-65
2023/03/26 10:51:24;;;;;;;5.38;1.50;;;;;;;10.51;67.88;100108.19;5102871;28;20653;-65
2023/03/26 10:53:56;;;;;;;5.55;1.27;;;;;;;10.51;68.00;100110.88;5114124;28;20396;-61
2023/03/26 10:56:28;;;;;;;2.03;1.30;;;;;;;10.51;67.80;100107.38;5115166;28;20074;-62
2023/03/26 10:58:57;;;;;;;2.78;1.05;;;;;;;10.52;67.92;100111.69;5116346;28;20059;-62
2023/03/26 11:01:38;;;;;;;1.75;0.80;;;;;;;10.44;68.01;100096.78;5112224;28;20156;-62
2023/03/26 11:04:18;;;;;;;2.22;1.08;;;;;;;10.51;68.15;100105.50;5109737;28;20051;-62
2023/03/26 11:06:54;;;;;;;3.60;1.60;;;;;;;10.53;68.08;100110.66;5116014;28;20048;-62
2023/03/26 11:09:32;;;;;;;3.70;1.10;;;;;;;10.52;68.06;100107.13;5110549;28;20044;-61
2023/03/26 11:12:07;;;;;;;2.58;0.90;;;;;;;10.52;68.16;100112.50;5120660;28;20081;-61
2023/03/26 11:15:03;;;;;;;3.80;1.05;;;;;;;10.57;67.63;100111.78;5114432;28;20067;-61
2023/03/26 11:17:45;;;;;;;2.28;1.05;;;;;;;10.74;67.16;100118.84;5115953;28;20044;-62
2023/03/26 11:20:18;;;;;;;2.35;1.25;;;;;;;10.91;66.29;100113.50;5114901;28;20043;-62
2023/03/26 11:22:59;;;;;;;3.10;1.27;;;;;;;11.11;65.41;100114.91;5109803;28;20071;-62
2023/03/26 11:25:46;;;;;;;4.07;1.02;;;;;;;11.28;65.05;100113.88;5118409;28;20075;-62
2023/03/26 11:28:32;;;;;;;3.20;1.30;;;;;;;11.47;64.11;100114.44;5115823;28;20039;-62
2023/03/26 11:31:08;;;;;;;1.10;0.82;;;;;;;11.64;63.48;100117.94;5116521;28;20339;-62
2023/03/26 11:33:41;;;;;;;2.85;0.88;;;;;;;11.84;62.72;100117.44;5110426;28;20051;-62
2023/03/26 11:36:19;;;;;;;2.20;0.77;;;;;;;12.01;62.40;100120.91;5119530;28;20112;-61
2023/03/26 11:38:50;;;;;;;2.55;1.10;;;;;;;12.13;61.92;100120.81;5118123;28;20051;-61
2023/03/26 11:41:21;;;;;;;2.03;1.00;;;;;;;12.27;61.32;100124.72;5119044;28;20306;-62
2023/03/26 11:43:55;;;;;;;2.13;1.25;;;;;;;12.36;61.15;100127.78;5119230;28;20051;-61
2023/03/26 11:46:25;;;;;;;2.20;0.95;;;;;;;12.39;60.61;100125.41;5112728;28;20096;-62
2023/03/26 11:48:58;;;;;;;1.95;0.80;;;;;;;12.33;60.93;100137.19;5115303;28;20040;-61
2023/03/26 11:51:31;;;;;;;2.08;0.95;;;;;;;12.19;61.15;100135.94;5112948;28;20550;-63
2023/03/26 11:53:59;;;;;;;1.65;0.80;;;;;;;12.00;62.17;100140.81;5115608;28;20062;-61
2023/03/26 11:56:32;;;;;;;2.15;1.02;;;;;;;11.82;62.34;100134.91;5117398;28;20353;-61